EGLL - London / Heathrow Airport
Distance from station: E 5mi, 14km
Updated: 06/21/2018 8:20pm
Clear
Clear
 Wind from varies
Wind: varies 2 mph , 4 km/h
Temperature: 50°F , 10°C
Dew Point: 43°F , 6°C
Humidity: 76%
Barometer: 30.42 inHg , 1030 hPa
Clouds: Clear
Visibility: 6 miles , 10 km
2018/06/22 03:20 EGLL 220320Z AUTO VRB02KT 9999 NCD 10/06 Q1030 NOSIG